sensor_id;sensor_type;location;lat;lon;timestamp;pressure;altitude;pressure_sealevel;temperature;humidity
9091;BME280;4581;42.416;25.598;2023-09-07T00:01:36;98840.22;;;20.86;82.95
9091;BME280;4581;42.416;25.598;2023-09-07T00:04:03;98828.31;;;20.81;82.00
9091;BME280;4581;42.416;25.598;2023-09-07T00:06:31;98829.25;;;20.86;81.45
9091;BME280;4581;42.416;25.598;2023-09-07T00:08:58;98835.38;;;20.88;80.88
9091;BME280;4581;42.416;25.598;2023-09-07T00:11:25;98837.03;;;20.89;80.54
9091;BME280;4581;42.416;25.598;2023-09-07T00:13:51;98831.19;;;20.86;80.92
9091;BME280;4581;42.416;25.598;2023-09-07T00:16:18;98829.25;;;20.86;81.21
9091;BME280;4581;42.416;25.598;2023-09-07T00:18:45;98829.03;;;20.88;80.86
9091;BME280;4581;42.416;25.598;2023-09-07T00:21:11;98829.66;;;20.90;80.38
9091;BME280;4581;42.416;25.598;2023-09-07T00:23:39;98832.97;;;20.92;80.70
9091;BME280;4581;42.416;25.598;2023-09-07T00:26:06;98833.47;;;20.89;79.83
9091;BME280;4581;42.416;25.598;2023-09-07T00:28:33;98842.16;;;20.86;80.09
9091;BME280;4581;42.416;25.598;2023-09-07T00:31:00;98831.53;;;20.78;80.85
9091;BME280;4581;42.416;25.598;2023-09-07T00:33:27;98840.81;;;20.77;81.16
9091;BME280;4581;42.416;25.598;2023-09-07T00:35:54;98835.34;;;20.77;80.83
9091;BME280;4581;42.416;25.598;2023-09-07T00:38:21;98828.63;;;20.73;80.55
9091;BME280;4581;42.416;25.598;2023-09-07T00:40:48;98833.88;;;20.74;79.75
9091;BME280;4581;42.416;25.598;2023-09-07T00:43:14;98830.75;;;20.71;79.58
9091;BME280;4581;42.416;25.598;2023-09-07T00:45:41;98823.16;;;20.73;77.73
9091;BME280;4581;42.416;25.598;2023-09-07T00:48:08;98825.16;;;20.66;78.37
9091;BME280;4581;42.416;25.598;2023-09-07T00:50:35;98829.34;;;20.68;78.35
9091;BME280;4581;42.416;25.598;2023-09-07T00:53:02;98830.88;;;20.64;78.55
9091;BME280;4581;42.416;25.598;2023-09-07T00:55:29;98836.72;;;20.68;78.75
9091;BME280;4581;42.416;25.598;2023-09-07T00:58:03;98829.34;;;20.68;77.86
9091;BME280;4581;42.416;25.598;2023-09-07T01:00:31;98834.97;;;20.73;77.80
9091;BME280;4581;42.416;25.598;2023-09-07T01:02:58;98840.69;;;20.83;76.21
9091;BME280;4581;42.416;25.598;2023-09-07T01:08:23;98837.13;;;20.83;74.79
9091;BME280;4581;42.416;25.598;2023-09-07T01:10:51;98840.22;;;20.86;72.70
9091;BME280;4581;42.416;25.598;2023-09-07T01:13:19;98833.94;;;20.86;72.04
9091;BME280;4581;42.416;25.598;2023-09-07T01:15:46;98830.94;;;20.87;71.25
9091;BME280;4581;42.416;25.598;2023-09-07T01:18:14;98837.75;;;20.85;72.13
9091;BME280;4581;42.416;25.598;2023-09-07T01:20:52;98831.09;;;20.92;70.27
9091;BME280;4581;42.416;25.598;2023-09-07T01:23:19;98833.47;;;21.00;70.16
9091;BME280;4581;42.416;25.598;2023-09-07T01:25:47;98829.31;;;20.98;70.95
9091;BME280;4581;42.416;25.598;2023-09-07T01:28:15;98826.56;;;20.98;70.29
9091;BME280;4581;42.416;25.598;2023-09-07T01:30:42;98827.50;;;20.92;68.64
9091;BME280;4581;42.416;25.598;2023-09-07T01:33:08;98832.50;;;20.95;67.61
9091;BME280;4581;42.416;25.598;2023-09-07T01:35:36;98835.50;;;20.93;65.86
9091;BME280;4581;42.416;25.598;2023-09-07T01:38:04;98838.34;;;20.98;63.09
9091;BME280;4581;42.416;25.598;2023-09-07T01:40:31;98842.69;;;21.06;61.25
9091;BME280;4581;42.416;25.598;2023-09-07T01:42:57;98843.38;;;21.01;62.40
9091;BME280;4581;42.416;25.598;2023-09-07T01:45:24;98832.44;;;21.01;62.76
9091;BME280;4581;42.416;25.598;2023-09-07T01:47:51;98828.00;;;21.00;62.99
9091;BME280;4581;42.416;25.598;2023-09-07T01:50:18;98828.47;;;20.97;64.40
9091;BME280;4581;42.416;25.598;2023-09-07T01:52:47;98832.06;;;20.98;64.47
9091;BME280;4581;42.416;25.598;2023-09-07T01:55:15;98829.03;;;20.88;64.58
9091;BME280;4581;42.416;25.598;2023-09-07T01:57:42;98831.56;;;20.89;65.27
9091;BME280;4581;42.416;25.598;2023-09-07T02:00:09;98835.59;;;20.87;64.39
9091;BME280;4581;42.416;25.598;2023-09-07T02:02:36;98834.16;;;20.84;65.49
9091;BME280;4581;42.416;25.598;2023-09-07T02:05:03;98833.78;;;20.81;65.69
9091;BME280;4581;42.416;25.598;2023-09-07T02:07:30;98826.03;;;20.78;65.28
9091;BME280;4581;42.416;25.598;2023-09-07T02:09:57;98825.22;;;20.77;64.73
9091;BME280;4581;42.416;25.598;2023-09-07T02:12:23;98819.72;;;20.77;64.85
9091;BME280;4581;42.416;25.598;2023-09-07T02:14:50;98832.81;;;20.75;64.34
9091;BME280;4581;42.416;25.598;2023-09-07T02:17:17;98835.19;;;20.72;64.88
9091;BME280;4581;42.416;25.598;2023-09-07T02:19:44;98835.44;;;20.70;64.46
9091;BME280;4581;42.416;25.598;2023-09-07T02:22:11;98835.75;;;20.62;63.63
9091;BME280;4581;42.416;25.598;2023-09-07T02:24:38;98846.09;;;20.60;63.87
9091;BME280;4581;42.416;25.598;2023-09-07T02:27:05;98847.03;;;20.54;63.67
9091;BME280;4581;42.416;25.598;2023-09-07T02:29:31;98847.84;;;20.54;62.94
9091;BME280;4581;42.416;25.598;2023-09-07T02:31:58;98853.75;;;20.40;63.82
9091;BME280;4581;42.416;25.598;2023-09-07T02:34:25;98843.72;;;20.34;64.01
9091;BME280;4581;42.416;25.598;2023-09-07T02:36:51;98849.66;;;20.31;63.97
9091;BME280;4581;42.416;25.598;2023-09-07T02:39:18;98843.56;;;20.29;63.37
9091;BME280;4581;42.416;25.598;2023-09-07T02:41:45;98837.53;;;20.20;63.91
9091;BME280;4581;42.416;25.598;2023-09-07T02:44:12;98843.50;;;20.17;63.78
9091;BME280;4581;42.416;25.598;2023-09-07T02:46:39;98839.75;;;20.12;64.16
9091;BME280;4581;42.416;25.598;2023-09-07T02:49:06;98843.16;;;20.07;64.70
9091;BME280;4581;42.416;25.598;2023-09-07T02:51:32;98836.47;;;20.03;65.24
9091;BME280;4581;42.416;25.598;2023-09-07T02:54:01;98843.03;;;20.02;64.80
9091;BME280;4581;42.416;25.598;2023-09-07T02:56:28;98839.91;;;19.98;64.51
9091;BME280;4581;42.416;25.598;2023-09-07T02:58:55;98833.38;;;19.99;64.53
9091;BME280;4581;42.416;25.598;2023-09-07T03:01:23;98835.13;;;19.94;65.41
9091;BME280;4581;42.416;25.598;2023-09-07T03:03:50;98842.72;;;19.92;66.17
9091;BME280;4581;42.416;25.598;2023-09-07T03:06:17;98840.59;;;19.94;65.76
9091;BME280;4581;42.416;25.598;2023-09-07T03:08:44;98845.69;;;19.90;66.00
9091;BME280;4581;42.416;25.598;2023-09-07T03:11:11;98841.28;;;19.89;65.79
9091;BME280;4581;42.416;25.598;2023-09-07T03:13:38;98838.31;;;19.91;67.02
9091;BME280;4581;42.416;25.598;2023-09-07T03:16:05;98844.78;;;19.96;65.46
9091;BME280;4581;42.416;25.598;2023-09-07T03:18:32;98839.53;;;19.95;65.91
9091;BME280;4581;42.416;25.598;2023-09-07T03:21:01;98836.47;;;20.03;64.20
9091;BME280;4581;42.416;25.598;2023-09-07T03:23:29;98845.16;;;20.00;64.27
9091;BME280;4581;42.416;25.598;2023-09-07T03:25:57;98836.72;;;20.01;64.36
9091;BME280;4581;42.416;25.598;2023-09-07T03:28:24;98841.50;;;20.06;64.09
9091;BME280;4581;42.416;25.598;2023-09-07T03:30:53;98839.00;;;20.04;64.54
9091;BME280;4581;42.416;25.598;2023-09-07T03:33:20;98836.41;;;20.09;63.29
9091;BME280;4581;42.416;25.598;2023-09-07T03:35:46;98842.31;;;20.06;64.22
9091;BME280;4581;42.416;25.598;2023-09-07T03:38:14;98843.53;;;20.10;64.35
9091;BME280;4581;42.416;25.598;2023-09-07T03:40:40;98836.63;;;20.08;64.48
9091;BME280;4581;42.416;25.598;2023-09-07T03:43:07;98840.06;;;20.03;64.42
9091;BME280;4581;42.416;25.598;2023-09-07T03:45:34;98833.69;;;20.09;64.65
9091;BME280;4581;42.416;25.598;2023-09-07T03:48:00;98844.22;;;20.06;65.05
9091;BME280;4581;42.416;25.598;2023-09-07T03:50:27;98844.84;;;20.08;63.41
9091;BME280;4581;42.416;25.598;2023-09-07T03:52:54;98845.06;;;20.06;64.74
9091;BME280;4581;42.416;25.598;2023-09-07T03:55:21;98844.22;;;20.06;64.17
9091;BME280;4581;42.416;25.598;2023-09-07T03:57:48;98849.69;;;20.06;63.84
9091;BME280;4581;42.416;25.598;2023-09-07T04:00:15;98849.69;;;20.06;63.66
9091;BME280;4581;42.416;25.598;2023-09-07T04:02:42;98847.44;;;20.03;64.05
9091;BME280;4581;42.416;25.598;2023-09-07T04:05:09;98846.53;;;20.09;64.93
9091;BME280;4581;42.416;25.598;2023-09-07T04:07:37;98840.91;;;20.04;63.93
9091;BME280;4581;42.416;25.598;2023-09-07T04:10:05;98841.50;;;20.06;63.57
9091;BME280;4581;42.416;25.598;2023-09-07T04:12:32;98849.03;;;20.10;63.14
9091;BME280;4581;42.416;25.598;2023-09-07T04:15:03;98842.50;;;20.12;63.43
9091;BME280;4581;42.416;25.598;2023-09-07T04:17:30;98848.13;;;20.17;63.02
9091;BME280;4581;42.416;25.598;2023-09-07T04:19:56;98854.34;;;20.24;63.11
9091;BME280;4581;42.416;25.598;2023-09-07T04:22:23;98847.44;;;20.21;62.53
9091;BME280;4581;42.416;25.598;2023-09-07T04:24:50;98850.09;;;20.28;62.43
9091;BME280;4581;42.416;25.598;2023-09-07T04:27:17;98849.91;;;20.29;62.13
9091;BME280;4581;42.416;25.598;2023-09-07T04:29:43;98852.38;;;20.31;61.70
9091;BME280;4581;42.416;25.598;2023-09-07T04:32:10;98858.22;;;20.34;62.17
9091;BME280;4581;42.416;25.598;2023-09-07T04:34:37;98854.69;;;20.34;61.59
9091;BME280;4581;42.416;25.598;2023-09-07T04:37:03;98860.22;;;20.45;61.44
9091;BME280;4581;42.416;25.598;2023-09-07T04:39:30;98862.13;;;20.45;61.33
9091;BME280;4581;42.416;25.598;2023-09-07T04:41:57;98861.81;;;20.53;62.23
9091;BME280;4581;42.416;25.598;2023-09-07T04:44:23;98866.22;;;20.54;62.17
9091;BME280;4581;42.416;25.598;2023-09-07T04:46:50;98868.25;;;20.59;61.64
9091;BME280;4581;42.416;25.598;2023-09-07T04:49:18;98870.06;;;20.65;63.36
9091;BME280;4581;42.416;25.598;2023-09-07T04:51:45;98881.56;;;20.73;63.03
9091;BME280;4581;42.416;25.598;2023-09-07T04:54:11;98876.44;;;20.77;62.94
9091;BME280;4581;42.416;25.598;2023-09-07T04:56:39;98883.38;;;20.91;61.17
9091;BME280;4581;42.416;25.598;2023-09-07T04:59:06;98877.00;;;20.97;61.63
9091;BME280;4581;42.416;25.598;2023-09-07T05:01:32;98882.72;;;21.07;61.51
9091;BME280;4581;42.416;25.598;2023-09-07T05:03:59;98878.03;;;21.14;62.22
9091;BME280;4581;42.416;25.598;2023-09-07T05:06:28;98878.06;;;21.26;60.52
9091;BME280;4581;42.416;25.598;2023-09-07T05:08:55;98890.81;;;21.43;56.69
9091;BME280;4581;42.416;25.598;2023-09-07T05:11:21;98885.84;;;21.64;54.09
9091;BME280;4581;42.416;25.598;2023-09-07T05:13:48;98891.59;;;21.85;54.61
9091;BME280;4581;42.416;25.598;2023-09-07T05:16:15;98895.28;;;22.03;53.18
9091;BME280;4581;42.416;25.598;2023-09-07T05:18:42;98896.00;;;22.21;51.81
9091;BME280;4581;42.416;25.598;2023-09-07T05:21:13;98896.19;;;22.43;51.09
9091;BME280;4581;42.416;25.598;2023-09-07T05:23:40;98901.28;;;22.63;50.51
9091;BME280;4581;42.416;25.598;2023-09-07T05:26:07;98897.13;;;22.89;49.11
9091;BME280;4581;42.416;25.598;2023-09-07T05:28:34;98898.94;;;23.11;48.97
9091;BME280;4581;42.416;25.598;2023-09-07T05:31:01;98896.06;;;23.35;50.05
9091;BME280;4581;42.416;25.598;2023-09-07T05:33:27;98904.44;;;23.56;48.44
9091;BME280;4581;42.416;25.598;2023-09-07T05:35:54;98900.34;;;23.75;48.81
9091;BME280;4581;42.416;25.598;2023-09-07T05:38:20;98907.69;;;23.87;48.32
9091;BME280;4581;42.416;25.598;2023-09-07T05:40:47;98903.31;;;24.07;47.81
9091;BME280;4581;42.416;25.598;2023-09-07T05:43:16;98903.13;;;24.31;48.07
9091;BME280;4581;42.416;25.598;2023-09-07T05:45:43;98908.97;;;24.56;45.45
9091;BME280;4581;42.416;25.598;2023-09-07T05:48:10;98908.66;;;24.74;45.07
9091;BME280;4581;42.416;25.598;2023-09-07T05:50:38;98908.19;;;25.04;45.55
9091;BME280;4581;42.416;25.598;2023-09-07T05:53:05;98908.09;;;25.21;45.01
9091;BME280;4581;42.416;25.598;2023-09-07T05:55:32;98914.28;;;25.33;43.92
9091;BME280;4581;42.416;25.598;2023-09-07T05:57:59;98918.78;;;25.44;42.76
9091;BME280;4581;42.416;25.598;2023-09-07T06:00:30;98910.56;;;25.49;41.79
9091;BME280;4581;42.416;25.598;2023-09-07T06:02:57;98911.25;;;25.61;43.35
9091;BME280;4581;42.416;25.598;2023-09-07T06:05:24;98905.25;;;25.69;43.44
9091;BME280;4581;42.416;25.598;2023-09-07T06:07:51;98907.66;;;25.60;41.18
9091;BME280;4581;42.416;25.598;2023-09-07T06:10:17;98905.34;;;25.79;41.51
9091;BME280;4581;42.416;25.598;2023-09-07T06:12:45;98902.03;;;25.82;41.21
9091;BME280;4581;42.416;25.598;2023-09-07T06:15:12;98902.91;;;25.88;41.62
9091;BME280;4581;42.416;25.598;2023-09-07T06:17:39;98905.78;;;26.08;41.26
9091;BME280;4581;42.416;25.598;2023-09-07T06:20:06;98901.75;;;26.21;42.76
9091;BME280;4581;42.416;25.598;2023-09-07T06:22:33;98903.88;;;26.08;40.08
9091;BME280;4581;42.416;25.598;2023-09-07T06:25:00;98898.97;;;26.16;40.32
9091;BME280;4581;42.416;25.598;2023-09-07T06:27:26;98899.88;;;26.26;40.79
9091;BME280;4581;42.416;25.598;2023-09-07T06:29:53;98893.88;;;26.39;39.63
9091;BME280;4581;42.416;25.598;2023-09-07T06:32:20;98891.97;;;26.50;40.10
9091;BME280;4581;42.416;25.598;2023-09-07T06:34:47;98892.47;;;26.42;41.01
9091;BME280;4581;42.416;25.598;2023-09-07T06:37:14;98903.63;;;26.52;40.44
9091;BME280;4581;42.416;25.598;2023-09-07T06:39:40;98899.19;;;26.56;40.75
9091;BME280;4581;42.416;25.598;2023-09-07T06:42:09;98898.72;;;26.74;41.10
9091;BME280;4581;42.416;25.598;2023-09-07T06:44:36;98889.94;;;26.87;40.74
9091;BME280;4581;42.416;25.598;2023-09-07T06:47:03;98889.41;;;27.00;41.29
9091;BME280;4581;42.416;25.598;2023-09-07T06:49:30;98889.41;;;27.00;40.36
9091;BME280;4581;42.416;25.598;2023-09-07T06:51:57;98892.75;;;27.13;40.68
9091;BME280;4581;42.416;25.598;2023-09-07T06:54:24;98894.97;;;27.11;38.37
9091;BME280;4581;42.416;25.598;2023-09-07T06:56:51;98893.88;;;27.22;37.63
9091;BME280;4581;42.416;25.598;2023-09-07T06:59:17;98903.84;;;27.33;37.98
9091;BME280;4581;42.416;25.598;2023-09-07T07:01:44;98896.69;;;27.42;36.81
9091;BME280;4581;42.416;25.598;2023-09-07T07:04:11;98902.78;;;27.39;37.54
9091;BME280;4581;42.416;25.598;2023-09-07T07:06:38;98900.31;;;27.48;37.48
9091;BME280;4581;42.416;25.598;2023-09-07T07:09:05;98896.13;;;27.45;38.96
9091;BME280;4581;42.416;25.598;2023-09-07T07:11:32;98900.03;;;27.49;37.63
9091;BME280;4581;42.416;25.598;2023-09-07T07:13:59;98900.31;;;27.53;37.85
9091;BME280;4581;42.416;25.598;2023-09-07T07:16:25;98893.09;;;27.57;38.19
9091;BME280;4581;42.416;25.598;2023-09-07T07:18:52;98898.66;;;27.72;37.88
9091;BME280;4581;42.416;25.598;2023-09-07T07:21:19;98897.81;;;27.86;36.92
9091;BME280;4581;42.416;25.598;2023-09-07T07:23:45;98906.69;;;27.99;37.44
9091;BME280;4581;42.416;25.598;2023-09-07T07:26:12;98905.84;;;28.08;36.79
9091;BME280;4581;42.416;25.598;2023-09-07T07:28:39;98903.34;;;28.07;36.57
9091;BME280;4581;42.416;25.598;2023-09-07T07:31:10;98914.44;;;28.07;36.67
9091;BME280;4581;42.416;25.598;2023-09-07T07:33:36;98909.19;;;28.00;38.03
9091;BME280;4581;42.416;25.598;2023-09-07T07:36:06;98910.84;;;28.11;38.00
9091;BME280;4581;42.416;25.598;2023-09-07T07:38:33;98906.13;;;28.07;37.70
9091;BME280;4581;42.416;25.598;2023-09-07T07:41:01;98910.56;;;28.13;36.78
9091;BME280;4581;42.416;25.598;2023-09-07T07:43:27;98903.63;;;28.20;36.89
9091;BME280;4581;42.416;25.598;2023-09-07T07:45:54;98914.44;;;28.22;36.00
9091;BME280;4581;42.416;25.598;2023-09-07T07:48:21;98913.91;;;28.20;36.76
9091;BME280;4581;42.416;25.598;2023-09-07T07:50:48;98899.72;;;28.21;36.29
9091;BME280;4581;42.416;25.598;2023-09-07T07:53:15;98906.69;;;28.24;36.88
9091;BME280;4581;42.416;25.598;2023-09-07T07:55:42;98906.88;;;28.43;36.69
9091;BME280;4581;42.416;25.598;2023-09-07T07:58:09;98900.50;;;28.52;37.37
9091;BME280;4581;42.416;25.598;2023-09-07T08:00:39;98905.19;;;28.52;36.17
9091;BME280;4581;42.416;25.598;2023-09-07T08:03:15;98898.50;;;28.58;35.55
9091;BME280;4581;42.416;25.598;2023-09-07T08:05:42;98890.44;;;28.66;37.47
9091;BME280;4581;42.416;25.598;2023-09-07T08:08:09;98899.03;;;28.65;36.01
9091;BME280;4581;42.416;25.598;2023-09-07T08:10:37;98899.84;;;28.80;35.21
9091;BME280;4581;42.416;25.598;2023-09-07T08:13:04;98900.69;;;28.76;34.38
9091;BME280;4581;42.416;25.598;2023-09-07T08:15:32;98901.00;;;28.64;35.99
9091;BME280;4581;42.416;25.598;2023-09-07T08:17:59;98892.38;;;28.61;35.83
9091;BME280;4581;42.416;25.598;2023-09-07T08:20:27;98900.97;;;28.74;35.54
9091;BME280;4581;42.416;25.598;2023-09-07T08:22:54;98896.84;;;28.72;34.91
9091;BME280;4581;42.416;25.598;2023-09-07T08:25:21;98899.88;;;28.75;34.36
9091;BME280;4581;42.416;25.598;2023-09-07T08:27:47;98894.81;;;28.88;35.42
9091;BME280;4581;42.416;25.598;2023-09-07T08:30:16;98899.03;;;28.75;35.07
9091;BME280;4581;42.416;25.598;2023-09-07T08:32:45;98898.72;;;28.81;35.64
9091;BME280;4581;42.416;25.598;2023-09-07T08:35:14;98905.81;;;29.08;35.57
9091;BME280;4581;42.416;25.598;2023-09-07T08:37:43;98901.59;;;29.15;34.22
9091;BME280;4581;42.416;25.598;2023-09-07T08:40:10;98915.16;;;29.17;34.54
9091;BME280;4581;42.416;25.598;2023-09-07T08:42:41;98903.88;;;29.08;34.60
9091;BME280;4581;42.416;25.598;2023-09-07T08:45:08;98900.53;;;29.06;36.02
9091;BME280;4581;42.416;25.598;2023-09-07T08:47:38;98887.00;;;28.95;35.29
9091;BME280;4581;42.416;25.598;2023-09-07T08:50:05;98906.81;;;29.22;34.43
9091;BME280;4581;42.416;25.598;2023-09-07T08:52:34;98899.03;;;29.29;35.82
9091;BME280;4581;42.416;25.598;2023-09-07T08:55:02;98887.34;;;29.32;34.43
9091;BME280;4581;42.416;25.598;2023-09-07T08:57:32;98891.81;;;29.28;35.37
9091;BME280;4581;42.416;25.598;2023-09-07T08:59:59;98901.22;;;29.27;35.30
9091;BME280;4581;42.416;25.598;2023-09-07T09:02:26;98890.91;;;29.38;35.89
9091;BME280;4581;42.416;25.598;2023-09-07T09:04:53;98890.47;;;29.59;35.29
9091;BME280;4581;42.416;25.598;2023-09-07T09:07:20;98884.34;;;29.57;34.87
9091;BME280;4581;42.416;25.598;2023-09-07T09:09:48;98884.56;;;29.66;35.05
9091;BME280;4581;42.416;25.598;2023-09-07T09:12:16;98870.91;;;29.69;34.10
9091;BME280;4581;42.416;25.598;2023-09-07T09:14:44;98875.81;;;29.83;34.42
9091;BME280;4581;42.416;25.598;2023-09-07T09:17:12;98875.19;;;29.91;33.66
9091;BME280;4581;42.416;25.598;2023-09-07T09:19:40;98865.59;;;30.07;34.06
9091;BME280;4581;42.416;25.598;2023-09-07T09:22:08;98868.31;;;30.12;34.62
9091;BME280;4581;42.416;25.598;2023-09-07T09:24:36;98857.72;;;30.14;34.13
9091;BME280;4581;42.416;25.598;2023-09-07T09:27:03;98860.50;;;30.14;34.85
9091;BME280;4581;42.416;25.598;2023-09-07T09:29:34;98859.97;;;30.36;35.17
9091;BME280;4581;42.416;25.598;2023-09-07T09:32:06;98849.13;;;30.34;33.41
9091;BME280;4581;42.416;25.598;2023-09-07T09:34:34;98847.41;;;30.38;33.32
9091;BME280;4581;42.416;25.598;2023-09-07T09:37:02;98847.59;;;30.23;34.10
9091;BME280;4581;42.416;25.598;2023-09-07T09:39:33;98840.78;;;30.34;34.12
9091;BME280;4581;42.416;25.598;2023-09-07T09:42:01;98833.94;;;30.27;34.75
9091;BME280;4581;42.416;25.598;2023-09-07T09:44:29;98843.56;;;30.34;33.88
9091;BME280;4581;42.416;25.598;2023-09-07T09:46:56;98829.97;;;30.33;33.36
9091;BME280;4581;42.416;25.598;2023-09-07T09:49:24;98822.19;;;30.53;32.01
9091;BME280;4581;42.416;25.598;2023-09-07T09:51:53;98821.88;;;30.79;32.44
9091;BME280;4581;42.416;25.598;2023-09-07T09:54:21;98815.00;;;30.90;32.03
9091;BME280;4581;42.416;25.598;2023-09-07T09:56:48;98816.06;;;30.94;31.82
9091;BME280;4581;42.416;25.598;2023-09-07T09:59:15;98824.75;;;30.92;31.73
9091;BME280;4581;42.416;25.598;2023-09-07T10:01:47;98818.69;;;31.09;31.90
9091;BME280;4581;42.416;25.598;2023-09-07T10:04:18;98823.72;;;31.07;31.42
9091;BME280;4581;42.416;25.598;2023-09-07T10:06:57;98824.25;;;31.09;32.02
9091;BME280;4581;42.416;25.598;2023-09-07T10:09:29;98810.53;;;31.13;31.09
9091;BME280;4581;42.416;25.598;2023-09-07T10:11:58;98815.41;;;31.02;31.77
9091;BME280;4581;42.416;25.598;2023-09-07T10:14:26;98808.47;;;31.18;32.97
9091;BME280;4581;42.416;25.598;2023-09-07T10:17:03;98815.31;;;31.26;31.43
9091;BME280;4581;42.416;25.598;2023-09-07T10:19:31;98806.88;;;31.31;31.30
9091;BME280;4581;42.416;25.598;2023-09-07T10:21:57;98809.81;;;31.39;32.00
9091;BME280;4581;42.416;25.598;2023-09-07T10:24:28;98817.06;;;31.40;31.74
9091;BME280;4581;42.416;25.598;2023-09-07T10:27:08;98822.56;;;31.45;30.92
9091;BME280;4581;42.416;25.598;2023-09-07T10:29:45;98829.41;;;31.34;32.02
9091;BME280;4581;42.416;25.598;2023-09-07T10:32:13;98818.00;;;31.17;31.14
9091;BME280;4581;42.416;25.598;2023-09-07T10:34:46;98801.09;;;31.27;31.12
9091;BME280;4581;42.416;25.598;2023-09-07T10:37:14;98809.31;;;31.37;31.17
9091;BME280;4581;42.416;25.598;2023-09-07T10:39:43;98798.66;;;31.39;31.12
9091;BME280;4581;42.416;25.598;2023-09-07T10:42:25;98805.28;;;31.43;31.52
9091;BME280;4581;42.416;25.598;2023-09-07T10:44:53;98799.63;;;31.48;31.42
9091;BME280;4581;42.416;25.598;2023-09-07T10:47:20;98791.78;;;31.69;31.40
9091;BME280;4581;42.416;25.598;2023-09-07T10:49:47;98808.19;;;31.71;30.80
9091;BME280;4581;42.416;25.598;2023-09-07T10:52:14;98809.75;;;31.90;30.81
9091;BME280;4581;42.416;25.598;2023-09-07T10:54:41;98798.81;;;31.94;30.15
9091;BME280;4581;42.416;25.598;2023-09-07T10:57:09;98797.38;;;31.96;31.21
9091;BME280;4581;42.416;25.598;2023-09-07T10:59:36;98798.19;;;31.70;31.69
9091;BME280;4581;42.416;25.598;2023-09-07T11:02:04;98805.38;;;31.71;31.00
9091;BME280;4581;42.416;25.598;2023-09-07T11:04:32;98800.88;;;32.02;30.24
9091;BME280;4581;42.416;25.598;2023-09-07T11:06:59;98788.94;;;32.29;30.68
9091;BME280;4581;42.416;25.598;2023-09-07T11:09:26;98785.13;;;32.25;30.28
9091;BME280;4581;42.416;25.598;2023-09-07T11:11:53;98785.53;;;32.32;30.12
9091;BME280;4581;42.416;25.598;2023-09-07T11:14:21;98777.53;;;32.53;30.76
9091;BME280;4581;42.416;25.598;2023-09-07T11:16:49;98773.63;;;32.40;29.22
9091;BME280;4581;42.416;25.598;2023-09-07T11:19:15;98780.19;;;32.22;29.93
9091;BME280;4581;42.416;25.598;2023-09-07T11:21:45;98765.34;;;31.94;29.59
9091;BME280;4581;42.416;25.598;2023-09-07T11:24:12;98768.47;;;32.20;30.04
9091;BME280;4581;42.416;25.598;2023-09-07T11:26:46;98763.00;;;32.28;30.71
9091;BME280;4581;42.416;25.598;2023-09-07T11:29:14;98775.69;;;32.34;29.76
9091;BME280;4581;42.416;25.598;2023-09-07T11:31:42;98766.22;;;32.22;29.95
9091;BME280;4581;42.416;25.598;2023-09-07T11:34:13;98770.88;;;32.13;29.88
9091;BME280;4581;42.416;25.598;2023-09-07T11:36:40;98767.22;;;32.39;30.33
9091;BME280;4581;42.416;25.598;2023-09-07T11:39:08;98775.03;;;32.78;30.17
9091;BME280;4581;42.416;25.598;2023-09-07T11:41:42;98758.81;;;33.03;27.98
9091;BME280;4581;42.416;25.598;2023-09-07T11:44:10;98748.81;;;32.66;28.67
9091;BME280;4581;42.416;25.598;2023-09-07T11:46:38;98761.75;;;31.93;29.25
9091;BME280;4581;42.416;25.598;2023-09-07T11:49:05;98765.13;;;31.77;30.63
9091;BME280;4581;42.416;25.598;2023-09-07T11:51:32;98762.00;;;31.78;30.67
9091;BME280;4581;42.416;25.598;2023-09-07T11:54:01;98745.22;;;32.11;29.93
9091;BME280;4581;42.416;25.598;2023-09-07T11:56:28;98751.59;;;32.38;29.50
9091;BME280;4581;42.416;25.598;2023-09-07T11:58:55;98746.72;;;32.58;28.88
9091;BME280;4581;42.416;25.598;2023-09-07T12:01:22;98750.13;;;32.55;28.83
9091;BME280;4581;42.416;25.598;2023-09-07T12:03:49;98734.84;;;32.66;29.40
9091;BME280;4581;42.416;25.598;2023-09-07T12:06:16;98746.00;;;32.66;29.93
9091;BME280;4581;42.416;25.598;2023-09-07T12:08:58;98742.78;;;32.72;29.11
9091;BME280;4581;42.416;25.598;2023-09-07T12:11:25;98744.53;;;33.49;28.22
9091;BME280;4581;42.416;25.598;2023-09-07T12:13:52;98750.03;;;34.24;26.74
9091;BME280;4581;42.416;25.598;2023-09-07T12:16:19;98741.84;;;34.45;26.91
9091;BME280;4581;42.416;25.598;2023-09-07T12:18:46;98740.72;;;34.06;28.30
9091;BME280;4581;42.416;25.598;2023-09-07T12:21:12;98748.28;;;34.06;28.40
9091;BME280;4581;42.416;25.598;2023-09-07T12:23:39;98736.25;;;33.44;28.02
9091;BME280;4581;42.416;25.598;2023-09-07T12:26:06;98742.84;;;34.49;27.73
9091;BME280;4581;42.416;25.598;2023-09-07T12:28:33;98744.06;;;34.17;27.29
9091;BME280;4581;42.416;25.598;2023-09-07T12:30:59;98731.47;;;33.13;28.45
9091;BME280;4581;42.416;25.598;2023-09-07T12:33:26;98727.19;;;32.58;29.11
9091;BME280;4581;42.416;25.598;2023-09-07T12:35:56;98733.22;;;33.84;28.03
9091;BME280;4581;42.416;25.598;2023-09-07T12:38:23;98735.38;;;34.18;26.93
9091;BME280;4581;42.416;25.598;2023-09-07T12:40:54;98736.09;;;34.58;26.90
9091;BME280;4581;42.416;25.598;2023-09-07T12:43:21;98737.84;;;33.58;28.46
9091;BME280;4581;42.416;25.598;2023-09-07T12:45:48;98727.75;;;32.82;29.27
9091;BME280;4581;42.416;25.598;2023-09-07T12:48:14;98729.31;;;32.25;30.75
9091;BME280;4581;42.416;25.598;2023-09-07T12:50:42;98731.91;;;32.08;30.57
9091;BME280;4581;42.416;25.598;2023-09-07T12:53:12;98734.13;;;31.92;31.21
9091;BME280;4581;42.416;25.598;2023-09-07T12:55:39;98733.16;;;31.23;31.10
9091;BME280;4581;42.416;25.598;2023-09-07T12:58:05;98732.91;;;31.06;31.28
9091;BME280;4581;42.416;25.598;2023-09-07T13:00:32;98722.44;;;30.79;32.65
9091;BME280;4581;42.416;25.598;2023-09-07T13:02:59;98738.69;;;30.53;32.40
9091;BME280;4581;42.416;25.598;2023-09-07T13:05:25;98732.91;;;30.50;32.07
9091;BME280;4581;42.416;25.598;2023-09-07T13:07:52;98727.94;;;30.65;33.00
9091;BME280;4581;42.416;25.598;2023-09-07T13:10:21;98732.56;;;30.56;32.69
9091;BME280;4581;42.416;25.598;2023-09-07T13:12:47;98734.94;;;30.44;32.96
9091;BME280;4581;42.416;25.598;2023-09-07T13:15:14;98725.50;;;30.40;32.57